Rockford, Nebraska
Current Conditions -  °F | °C
As of 6:35 PM on Monday 24 Nov 2014 (Local Time) from KBIE Reporting Station
Clear Clear  
Wind Chill: 15°   Ceiling: Unl
Heat Index: 24°   Visibility: 10mi
Dew Point:   Wind: 8mph
Humidity: 51%   Direction: 320°NW
Pressure: 29.99"   Gusts: NA
Location:  40.2674°N, 96.7699°W
Report Text: KBIE 250035Z AUTO 32007KT 10SM CLR M04/M13 A2999 RMK AO2 T10431131
Loading
Personal Weather Stations






























Interactive Weather Map New forecast layout! Learn more

10-Day Weather Forecast

Advertisements
Track Severe Weather on mobile